createdAt,value
2022-10-09T00:13:04.914Z,9.25
2022-10-09T00:26:11.385Z,9.31
2022-10-09T00:34:58.027Z,9.26
2022-10-09T00:39:11.089Z,9.27
2022-10-09T00:43:01.275Z,9.27
2022-10-09T01:11:36.743Z,9.60
2022-10-09T01:22:36.772Z,9.65
2022-10-09T01:26:40.214Z,9.67
2022-10-09T01:34:48.350Z,9.65
2022-10-09T01:37:55.184Z,9.63
2022-10-09T01:41:54.297Z,9.64
2022-10-09T01:53:22.904Z,9.67
2022-10-09T02:05:55.465Z,9.78
2022-10-09T02:09:13.969Z,9.82
2022-10-09T02:13:41.881Z,9.82
2022-10-09T02:17:51.226Z,9.87
2022-10-09T02:21:11.564Z,9.92
2022-10-09T02:25:18.312Z,9.92
2022-10-09T02:28:41.450Z,9.93
2022-10-09T02:36:34.328Z,9.92
2022-10-09T02:40:50.099Z,9.94
2022-10-09T02:45:10.487Z,9.96
2022-10-09T02:49:27.197Z,9.95
2022-10-09T02:53:33.355Z,9.94
2022-10-09T02:57:10.197Z,9.92
2022-10-09T03:01:36.212Z,9.89
2022-10-09T03:05:32.105Z,9.86
2022-10-09T03:12:54.590Z,9.80
2022-10-09T03:16:59.881Z,9.78
2022-10-09T03:24:12.183Z,9.74
2022-10-09T03:27:16.974Z,9.67
2022-10-09T03:30:27.150Z,9.65
2022-10-09T03:34:18.591Z,9.62
2022-10-09T03:37:51.228Z,9.60
2022-10-09T03:41:04.005Z,9.59
2022-10-09T03:53:33.771Z,9.55
2022-10-09T03:57:22.663Z,9.54
2022-10-09T04:00:53.816Z,9.51
2022-10-09T04:04:01.286Z,9.50
2022-10-09T04:08:18.138Z,9.47
2022-10-09T04:12:01.497Z,9.45
2022-10-09T04:15:17.787Z,9.46
2022-10-09T04:18:23.479Z,9.47
2022-10-09T04:21:59.335Z,9.47
2022-10-09T04:25:22.875Z,9.50
2022-10-09T04:28:39.084Z,9.51
2022-10-09T04:32:07.234Z,9.51
2022-10-09T04:35:27.800Z,9.50
2022-10-09T04:38:54.044Z,9.51
2022-10-09T04:42:17.916Z,9.49
2022-10-09T04:45:50.206Z,9.51
2022-10-09T04:49:07.581Z,9.51
2022-10-09T04:52:23.263Z,9.48
2022-10-09T04:57:00.470Z,9.39
2022-10-09T05:00:50.003Z,9.33
2022-10-09T05:04:40.723Z,9.28
2022-10-09T05:07:44.044Z,9.22
2022-10-09T05:14:54.117Z,9.18
2022-10-09T05:18:28.379Z,9.19
2022-10-09T05:22:02.558Z,9.15
2022-10-09T05:29:15.166Z,9.09
2022-10-09T05:36:31.782Z,9.02
2022-10-09T05:39:46.371Z,8.96
2022-10-09T05:42:51.839Z,8.93
2022-10-09T05:46:24.091Z,8.90
2022-10-09T05:54:20.807Z,8.91
2022-10-09T05:58:04.246Z,8.93
2022-10-09T06:01:18.074Z,8.91
2022-10-09T06:08:39.129Z,8.89
2022-10-09T06:11:47.104Z,8.86
2022-10-09T06:15:36.178Z,8.83
2022-10-09T06:18:57.757Z,8.83
2022-10-09T06:26:32.265Z,8.80
2022-10-09T06:33:10.674Z,8.77
2022-10-09T06:36:23.461Z,8.79
2022-10-09T06:39:27.938Z,8.78
2022-10-09T06:42:39.950Z,8.79
2022-10-09T06:46:02.981Z,8.81
2022-10-09T06:49:15.406Z,8.82
2022-10-09T06:52:22.155Z,8.84
2022-10-09T06:55:28.806Z,8.84
2022-10-09T06:58:33.500Z,8.86
2022-10-09T07:01:40.265Z,8.86
2022-10-09T07:04:44.891Z,8.86
2022-10-09T07:07:49.187Z,8.85
2022-10-09T07:10:54.865Z,8.87
2022-10-09T07:14:02.076Z,8.88
2022-10-09T07:17:10.006Z,8.88
2022-10-09T07:20:17.745Z,8.93
2022-10-09T07:23:22.079Z,8.98
2022-10-09T07:26:28.139Z,9.00
2022-10-09T07:29:46.544Z,9.03
2022-10-09T07:32:57.488Z,9.07
2022-10-09T07:36:04.984Z,9.12
2022-10-09T07:39:09.602Z,9.16
2022-10-09T07:42:15.148Z,9.19
2022-10-09T07:45:19.647Z,9.23
2022-10-09T07:48:27.296Z,9.30
2022-10-09T07:51:32.570Z,9.38
2022-10-09T07:54:36.864Z,9.38
2022-10-09T07:57:46.459Z,9.40
2022-10-09T08:00:51.084Z,9.45
2022-10-09T08:03:56.776Z,9.49
2022-10-09T08:07:00.954Z,9.57
2022-10-09T08:10:06.009Z,9.65
2022-10-09T08:13:10.247Z,9.69
2022-10-09T08:16:15.827Z,9.72
2022-10-09T08:19:20.211Z,9.78
2022-10-09T08:22:24.592Z,9.85
2022-10-09T08:25:29.237Z,9.92
2022-10-09T08:28:33.332Z,9.99
2022-10-09T08:31:38.195Z,10.10
2022-10-09T08:34:42.730Z,10.19
2022-10-09T08:37:47.262Z,10.23
2022-10-09T08:41:01.125Z,10.33
2022-10-09T08:44:18.800Z,10.38
2022-10-09T08:47:53.149Z,10.49
2022-10-09T08:51:00.106Z,10.54
2022-10-09T08:54:09.692Z,10.62
2022-10-09T08:57:16.375Z,10.75
2022-10-09T09:00:29.472Z,10.88
2022-10-09T09:03:59.696Z,10.97
2022-10-09T09:07:22.248Z,11.04
2022-10-09T09:10:51.689Z,11.16
2022-10-09T09:14:29.136Z,11.23
2022-10-09T09:18:01.352Z,11.27
2022-10-09T09:21:23.804Z,11.40
2022-10-09T09:24:42.287Z,11.36
2022-10-09T09:27:50.312Z,11.47
2022-10-09T09:31:21.806Z,11.48
2022-10-09T09:34:41.056Z,11.54
2022-10-09T09:37:45.585Z,11.61
2022-10-09T09:40:50.811Z,11.68
2022-10-09T09:43:55.487Z,11.80
2022-10-09T09:47:00.003Z,11.92
2022-10-09T09:50:06.461Z,11.94
2022-10-09T09:53:33.896Z,12.00
2022-10-09T10:00:20.074Z,12.36
2022-10-09T10:03:25.461Z,12.41
2022-10-09T10:06:42.458Z,12.50
2022-10-09T10:09:47.036Z,12.55
2022-10-09T10:13:00.649Z,12.61
2022-10-09T10:16:07.916Z,12.65
2022-10-09T10:19:40.146Z,12.80
2022-10-09T10:22:53.945Z,13.00
2022-10-09T10:26:02.252Z,13.25
2022-10-09T10:29:44.041Z,13.61
2022-10-09T10:33:13.109Z,13.85
2022-10-09T10:36:18.303Z,13.93
2022-10-09T10:39:35.781Z,13.96
2022-10-09T10:42:57.491Z,13.80
2022-10-09T10:46:38.679Z,13.58
2022-10-09T10:49:43.096Z,13.45
2022-10-09T10:53:15.424Z,13.43
2022-10-09T10:57:05.975Z,13.24
2022-10-09T11:00:12.788Z,13.28
2022-10-09T11:03:36.442Z,13.28
2022-10-09T11:06:58.143Z,13.29
2022-10-09T11:10:26.297Z,13.39
2022-10-09T11:13:53.212Z,13.40
2022-10-09T11:17:11.022Z,13.44
2022-10-09T11:20:52.371Z,13.48
2022-10-09T11:24:16.475Z,13.39
2022-10-09T11:28:01.986Z,13.44
2022-10-09T11:31:16.822Z,13.49
2022-10-09T11:34:37.142Z,13.42
2022-10-09T11:37:45.705Z,13.37
2022-10-09T11:40:50.744Z,13.36
2022-10-09T11:44:05.460Z,13.42
2022-10-09T11:47:44.928Z,13.43
2022-10-09T11:51:09.790Z,13.45
2022-10-09T11:54:18.678Z,13.43
2022-10-09T11:57:29.774Z,13.32
2022-10-09T12:00:37.924Z,13.35
2022-10-09T12:03:42.279Z,13.47
2022-10-09T12:07:07.128Z,13.48
2022-10-09T12:10:46.531Z,13.49
2022-10-09T12:13:58.335Z,13.51
2022-10-09T12:17:15.657Z,13.55
2022-10-09T12:20:24.873Z,13.42
2022-10-09T12:23:35.111Z,13.45
2022-10-09T12:26:41.387Z,13.52
2022-10-09T12:29:53.766Z,13.52
2022-10-09T12:33:17.974Z,13.70
2022-10-09T12:36:29.691Z,13.73
2022-10-09T12:39:34.006Z,13.64
2022-10-09T12:42:38.397Z,13.50
2022-10-09T12:45:46.417Z,13.46
2022-10-09T12:48:51.054Z,13.50
2022-10-09T12:51:57.262Z,13.72
2022-10-09T12:55:02.553Z,13.84
2022-10-09T12:58:20.972Z,13.75
2022-10-09T13:01:25.706Z,13.67
2022-10-09T13:04:33.660Z,13.70
2022-10-09T13:07:38.282Z,13.61
2022-10-09T13:10:42.525Z,13.51
2022-10-09T13:13:52.377Z,13.39
2022-10-09T13:16:56.821Z,13.28
2022-10-09T13:20:14.618Z,13.32
2022-10-09T13:23:33.210Z,13.45
2022-10-09T13:26:39.432Z,13.52
2022-10-09T13:29:44.087Z,13.49
2022-10-09T13:32:48.251Z,13.43
2022-10-09T13:35:52.407Z,13.52
2022-10-09T13:38:56.762Z,13.58
2022-10-09T13:42:02.894Z,13.58
2022-10-09T13:45:08.513Z,13.52
2022-10-09T13:48:12.678Z,13.45
2022-10-09T13:51:17.164Z,13.35
2022-10-09T13:54:21.686Z,13.39
2022-10-09T13:57:26.053Z,13.47
2022-10-09T14:00:58.340Z,13.54
2022-10-09T14:04:02.682Z,13.39
2022-10-09T14:07:06.690Z,13.32
2022-10-09T14:10:11.392Z,13.32
2022-10-09T14:13:15.999Z,13.29
2022-10-09T14:16:21.190Z,13.26
2022-10-09T14:19:27.730Z,13.27
2022-10-09T14:22:32.061Z,13.23
2022-10-09T14:25:36.584Z,13.22
2022-10-09T14:28:41.694Z,13.07
2022-10-09T14:31:46.073Z,12.95
2022-10-09T14:34:50.521Z,13.08
2022-10-09T14:37:54.832Z,13.23
2022-10-09T14:40:59.088Z,13.23
2022-10-09T14:44:03.280Z,13.21
2022-10-09T14:47:07.513Z,13.19
2022-10-09T14:50:11.926Z,13.27
2022-10-09T14:53:16.034Z,13.24
2022-10-09T14:56:21.262Z,13.21
2022-10-09T14:59:25.484Z,13.13
2022-10-09T15:02:29.671Z,13.16
2022-10-09T15:05:35.358Z,13.16
2022-10-09T15:08:42.451Z,13.07
2022-10-09T15:11:46.811Z,13.14
2022-10-09T15:14:50.815Z,12.97
2022-10-09T15:17:55.381Z,13.08
2022-10-09T15:20:59.856Z,13.05
2022-10-09T15:24:05.866Z,13.06
2022-10-09T15:27:10.240Z,12.87
2022-10-09T15:30:14.893Z,12.82
2022-10-09T15:33:19.572Z,12.74
2022-10-09T15:36:24.826Z,12.59
2022-10-09T15:39:29.491Z,12.51
2022-10-09T15:42:36.798Z,12.46
2022-10-09T15:45:41.235Z,12.49
2022-10-09T15:48:46.730Z,12.50
2022-10-09T15:51:51.149Z,12.47
2022-10-09T15:54:55.189Z,12.37
2022-10-09T15:57:59.543Z,12.20
2022-10-09T16:01:11.484Z,12.13
2022-10-09T16:04:15.900Z,11.97
2022-10-09T16:07:20.384Z,11.86
2022-10-09T16:10:25.030Z,11.74
2022-10-09T16:13:29.358Z,11.65
2022-10-09T16:16:33.326Z,11.50
2022-10-09T16:19:37.720Z,11.41
2022-10-09T16:22:42.042Z,11.32
2022-10-09T16:25:58.303Z,11.29
2022-10-09T16:29:02.935Z,11.20
2022-10-09T16:32:07.360Z,11.12
2022-10-09T16:35:11.373Z,10.99
2022-10-09T16:38:16.860Z,10.94
2022-10-09T16:41:22.884Z,10.86
2022-10-09T16:44:26.927Z,10.81
2022-10-09T16:47:31.804Z,10.77
2022-10-09T16:50:41.777Z,10.71
2022-10-09T16:53:53.921Z,10.66
2022-10-09T16:56:58.333Z,10.66
2022-10-09T17:00:03.824Z,10.60
2022-10-09T17:03:08.294Z,10.59
2022-10-09T17:06:19.446Z,10.58
2022-10-09T17:09:24.189Z,10.54
2022-10-09T17:12:28.702Z,10.56
2022-10-09T17:15:32.800Z,10.52
2022-10-09T17:18:38.690Z,10.54
2022-10-09T17:21:43.626Z,10.55
2022-10-09T17:24:47.959Z,10.49
2022-10-09T17:27:52.458Z,10.48
2022-10-09T17:30:57.342Z,10.51
2022-10-09T17:34:04.138Z,10.56
2022-10-09T17:37:08.544Z,10.55
2022-10-09T17:40:12.728Z,10.53
2022-10-09T17:43:17.222Z,10.51
2022-10-09T17:46:22.482Z,10.53
2022-10-09T17:49:26.596Z,10.41
2022-10-09T17:52:30.965Z,10.30
2022-10-09T17:55:38.570Z,10.18
2022-10-09T17:58:44.479Z,10.08
2022-10-09T18:01:48.624Z,10.02
2022-10-09T18:04:57.276Z,10.00
2022-10-09T18:08:01.549Z,9.98
2022-10-09T18:11:09.491Z,9.89
2022-10-09T18:14:13.843Z,9.94
2022-10-09T18:17:18.096Z,9.93
2022-10-09T18:20:22.464Z,9.92
2022-10-09T18:23:26.593Z,9.92
2022-10-09T18:26:30.867Z,9.93
2022-10-09T18:29:35.198Z,9.92
2022-10-09T18:32:40.069Z,9.99
2022-10-09T18:35:44.757Z,9.96
2022-10-09T18:38:55.312Z,9.98
2022-10-09T18:42:02.075Z,10.02
2022-10-09T18:45:07.371Z,10.01
2022-10-09T18:48:11.822Z,10.06
2022-10-09T18:51:20.199Z,10.03
2022-10-09T18:54:26.187Z,9.99
2022-10-09T18:57:30.589Z,9.98
2022-10-09T19:00:37.169Z,9.93
2022-10-09T19:03:45.996Z,9.92
2022-10-09T19:06:55.000Z,9.88
2022-10-09T19:09:58.941Z,9.88
2022-10-09T19:13:03.416Z,9.86
2022-10-09T19:16:09.750Z,9.80
2022-10-09T19:19:14.589Z,9.80
2022-10-09T19:22:23.603Z,9.76
2022-10-09T19:25:28.453Z,9.71
2022-10-09T19:28:37.592Z,9.65
2022-10-09T19:31:42.056Z,9.67
2022-10-09T19:34:47.827Z,9.63
2022-10-09T19:37:52.523Z,9.68
2022-10-09T19:41:04.750Z,9.60
2022-10-09T19:44:09.932Z,9.63
2022-10-09T19:47:15.890Z,9.61
2022-10-09T19:50:20.514Z,9.55
2022-10-09T19:53:24.503Z,9.51
2022-10-09T19:56:33.027Z,9.53
2022-10-09T19:59:37.588Z,9.61
2022-10-09T20:02:41.971Z,9.64
2022-10-09T20:05:46.516Z,9.63
2022-10-09T20:08:50.834Z,9.61
2022-10-09T20:11:55.091Z,9.58
2022-10-09T20:14:59.432Z,9.50
2022-10-09T20:18:03.872Z,9.52
2022-10-09T20:21:18.684Z,9.56
2022-10-09T20:24:23.684Z,9.53
2022-10-09T20:27:29.898Z,9.51
2022-10-09T20:30:34.400Z,9.51
2022-10-09T20:33:39.090Z,9.47
2022-10-09T20:36:43.417Z,9.42
2022-10-09T20:39:48.996Z,9.49
2022-10-09T20:42:53.538Z,9.48
2022-10-09T20:45:58.053Z,9.53
2022-10-09T20:49:05.527Z,9.52
2022-10-09T20:52:10.362Z,9.61
2022-10-09T20:55:15.093Z,9.59
2022-10-09T20:58:19.145Z,9.62
2022-10-09T21:01:23.426Z,9.65
2022-10-09T21:04:27.762Z,9.61
2022-10-09T21:07:32.643Z,9.64
2022-10-09T21:10:47.634Z,9.68
2022-10-09T21:13:52.211Z,9.64
2022-10-09T21:16:56.821Z,9.69
2022-10-09T21:20:01.027Z,9.67
2022-10-09T21:23:05.595Z,9.70
2022-10-09T21:26:16.352Z,9.76
2022-10-09T21:29:20.419Z,9.82
2022-10-09T21:32:24.882Z,9.84
2022-10-09T21:35:29.339Z,9.74
2022-10-09T21:38:33.754Z,9.83
2022-10-09T21:41:38.425Z,9.79
2022-10-09T21:44:42.856Z,9.79
2022-10-09T21:47:47.073Z,9.79
2022-10-09T21:50:51.488Z,9.79
2022-10-09T21:53:56.207Z,9.84
2022-10-09T21:57:00.696Z,9.79
2022-10-09T22:00:07.627Z,9.87
2022-10-09T22:03:11.783Z,9.91
2022-10-09T22:06:19.259Z,9.88
2022-10-09T22:09:23.776Z,9.88
2022-10-09T22:12:28.359Z,9.84
2022-10-09T22:15:32.813Z,9.82
2022-10-09T22:18:38.048Z,9.94
2022-10-09T22:21:42.671Z,9.92
2022-10-09T22:24:46.923Z,9.94
2022-10-09T22:27:51.592Z,9.92
2022-10-09T22:31:14.247Z,9.85
2022-10-09T22:34:19.412Z,9.87
2022-10-09T22:37:24.123Z,9.75
2022-10-09T22:40:28.305Z,9.79
2022-10-09T22:43:32.373Z,9.80
2022-10-09T22:46:41.355Z,9.89
2022-10-09T22:49:45.584Z,9.80
2022-10-09T22:52:50.518Z,9.79
2022-10-09T22:55:55.010Z,9.79
2022-10-09T22:58:59.938Z,9.69
2022-10-09T23:02:04.714Z,9.71
2022-10-09T23:05:09.378Z,9.68
2022-10-09T23:08:13.455Z,9.71
2022-10-09T23:11:20.160Z,9.65
2022-10-09T23:14:25.555Z,9.66
2022-10-09T23:17:30.036Z,9.56
2022-10-09T23:20:37.272Z,9.51
2022-10-09T23:23:42.442Z,9.55
2022-10-09T23:26:50.023Z,9.53
2022-10-09T23:29:54.519Z,9.37
2022-10-09T23:32:58.823Z,9.45
2022-10-09T23:36:04.325Z,9.43
2022-10-09T23:39:08.938Z,9.31
2022-10-09T23:42:13.650Z,9.40
2022-10-09T23:45:18.274Z,9.48
2022-10-09T23:48:22.589Z,9.46
2022-10-09T23:51:27.972Z,9.44
2022-10-09T23:54:32.488Z,9.40
2022-10-09T23:57:37.154Z,9.41
